createdAt,value
2022-10-16T00:01:30.746Z,1.45
2022-10-16T00:04:01.122Z,1.40
2022-10-16T00:06:33.486Z,1.30
2022-10-16T00:09:01.733Z,1.88
2022-10-16T00:11:37.487Z,1.73
2022-10-16T00:14:11.132Z,1.77
2022-10-16T00:16:39.746Z,1.60
2022-10-16T00:19:07.847Z,1.80
2022-10-16T00:21:35.995Z,1.17
2022-10-16T00:24:09.674Z,1.77
2022-10-16T00:26:40.925Z,1.98
2022-10-16T00:29:09.508Z,1.52
2022-10-16T00:31:37.821Z,1.60
2022-10-16T00:34:05.620Z,1.50
2022-10-16T00:36:33.731Z,1.58
2022-10-16T00:39:02.167Z,1.85
2022-10-16T00:41:31.725Z,1.40
2022-10-16T00:44:03.673Z,1.15
2022-10-16T00:46:43.457Z,1.20
2022-10-16T00:49:15.198Z,1.60
2022-10-16T00:51:45.999Z,1.75
2022-10-16T00:54:18.385Z,1.80
2022-10-16T00:56:48.284Z,1.67
2022-10-16T00:59:24.604Z,1.60
2022-10-16T01:01:52.612Z,1.52
2022-10-16T01:04:21.471Z,1.75
2022-10-16T01:07:00.248Z,1.75
2022-10-16T01:09:37.575Z,1.40
2022-10-16T01:12:16.590Z,1.40
2022-10-16T01:14:55.935Z,1.38
2022-10-16T01:17:31.093Z,1.40
2022-10-16T01:20:16.475Z,2.08
2022-10-16T01:23:07.721Z,1.52
2022-10-16T01:25:58.483Z,1.30
2022-10-16T01:28:36.298Z,1.50
2022-10-16T01:31:05.214Z,1.38
2022-10-16T01:33:42.147Z,1.30
2022-10-16T01:36:16.331Z,1.40
2022-10-16T01:38:49.570Z,1.48
2022-10-16T01:41:25.844Z,1.55
2022-10-16T01:44:03.711Z,1.42
2022-10-16T01:46:33.918Z,1.30
2022-10-16T01:49:04.809Z,1.60
2022-10-16T01:54:03.937Z,1.23
2022-10-16T01:56:32.892Z,1.13
2022-10-16T01:59:08.769Z,1.50
2022-10-16T02:01:42.571Z,1.58
2022-10-16T02:04:16.987Z,1.50
2022-10-16T02:06:44.937Z,1.73
2022-10-16T02:09:13.312Z,1.52
2022-10-16T02:11:41.091Z,1.63
2022-10-16T02:14:10.268Z,1.33
2022-10-16T02:16:41.636Z,1.50
2022-10-16T02:19:10.614Z,1.27
2022-10-16T02:21:46.520Z,1.35
2022-10-16T02:24:27.559Z,1.33
2022-10-16T02:29:34.981Z,1.30
2022-10-16T02:32:06.243Z,1.63
2022-10-16T02:34:36.182Z,1.10
2022-10-16T02:37:07.687Z,1.98
2022-10-16T02:39:36.451Z,1.27
2022-10-16T02:42:04.532Z,1.48
2022-10-16T02:44:33.820Z,1.40
2022-10-16T02:47:01.646Z,1.50
2022-10-16T02:49:29.428Z,1.30
2022-10-16T02:51:57.148Z,1.50
2022-10-16T02:54:24.988Z,1.30
2022-10-16T02:56:52.827Z,1.48
2022-10-16T02:59:20.591Z,1.25
2022-10-16T03:01:49.660Z,1.52
2022-10-16T03:04:17.446Z,1.45
2022-10-16T03:06:45.161Z,1.40
2022-10-16T03:09:12.922Z,1.65
2022-10-16T03:11:40.668Z,1.75
2022-10-16T03:14:08.688Z,1.13
2022-10-16T03:16:36.432Z,1.33
2022-10-16T03:19:05.511Z,1.45
2022-10-16T03:21:33.295Z,1.30
2022-10-16T03:24:01.072Z,1.25
2022-10-16T03:26:28.825Z,1.38
2022-10-16T03:28:56.687Z,1.08
2022-10-16T03:31:24.490Z,1.05
2022-10-16T03:33:52.229Z,1.17
2022-10-16T03:36:21.292Z,1.30
2022-10-16T03:38:49.034Z,1.58
2022-10-16T03:41:16.871Z,1.38
2022-10-16T03:43:44.960Z,1.20
2022-10-16T03:46:12.702Z,1.20
2022-10-16T03:48:40.884Z,1.27
2022-10-16T03:51:08.693Z,1.50
2022-10-16T03:53:37.850Z,1.17
2022-10-16T03:56:05.976Z,1.40
2022-10-16T03:58:33.791Z,1.05
2022-10-16T04:01:01.581Z,1.17
2022-10-16T04:03:29.434Z,1.10
2022-10-16T04:05:57.572Z,1.20
2022-10-16T04:08:25.468Z,1.50
2022-10-16T04:10:54.566Z,1.55
2022-10-16T04:13:22.660Z,1.38
2022-10-16T04:15:50.405Z,0.90
2022-10-16T04:18:18.163Z,0.90
2022-10-16T04:20:45.883Z,1.30
2022-10-16T04:23:13.681Z,1.02
2022-10-16T04:25:41.439Z,1.02
2022-10-16T04:28:10.535Z,1.05
2022-10-16T04:30:40.464Z,1.10
2022-10-16T04:33:08.243Z,0.90
2022-10-16T04:35:35.976Z,1.38
2022-10-16T04:38:03.727Z,1.10
2022-10-16T04:40:33.774Z,1.40
2022-10-16T04:43:01.519Z,1.27
2022-10-16T04:45:30.728Z,1.17
2022-10-16T04:47:59.704Z,1.40
2022-10-16T04:50:28.359Z,1.10
2022-10-16T04:52:56.148Z,1.23
2022-10-16T04:55:23.896Z,1.13
2022-10-16T04:57:51.656Z,1.20
2022-10-16T05:00:19.538Z,1.10
2022-10-16T05:02:48.681Z,1.13
2022-10-16T05:05:16.788Z,1.13
2022-10-16T05:07:44.555Z,0.85
2022-10-16T05:10:12.296Z,1.30
2022-10-16T05:12:40.237Z,1.10
2022-10-16T05:15:09.524Z,0.70
2022-10-16T05:17:41.104Z,1.30
2022-10-16T05:20:13.370Z,1.10
2022-10-16T05:22:41.103Z,1.08
2022-10-16T05:25:09.270Z,1.20
2022-10-16T05:27:37.083Z,1.00
2022-10-16T05:30:08.566Z,1.40
2022-10-16T05:32:37.784Z,1.15
2022-10-16T05:35:08.746Z,1.10
2022-10-16T05:37:40.867Z,1.17
2022-10-16T05:40:10.481Z,1.20
2022-10-16T05:42:38.323Z,1.10
2022-10-16T05:45:08.322Z,1.33
2022-10-16T05:47:36.128Z,1.20
2022-10-16T05:50:05.095Z,1.10
2022-10-16T05:52:32.926Z,1.10
2022-10-16T05:55:02.054Z,1.02
2022-10-16T05:57:29.921Z,1.08
2022-10-16T05:59:57.845Z,1.30
2022-10-16T06:02:25.599Z,1.10
2022-10-16T06:04:54.605Z,1.45
2022-10-16T06:07:22.739Z,1.20
2022-10-16T06:09:51.629Z,1.33
2022-10-16T06:12:21.796Z,1.25
2022-10-16T06:14:50.068Z,1.13
2022-10-16T06:17:17.849Z,1.13
2022-10-16T06:19:45.777Z,1.15
2022-10-16T06:22:13.666Z,1.00
2022-10-16T06:24:41.417Z,1.08
2022-10-16T06:27:09.176Z,1.00
2022-10-16T06:29:38.293Z,1.20
2022-10-16T06:32:06.448Z,1.13
2022-10-16T06:34:35.250Z,1.20
2022-10-16T06:37:03.208Z,1.30
2022-10-16T06:39:30.941Z,1.13
2022-10-16T06:44:31.396Z,1.20
2022-10-16T06:47:00.494Z,1.20
2022-10-16T06:49:29.554Z,1.17
2022-10-16T06:51:57.436Z,1.13
2022-10-16T06:54:25.255Z,1.15
2022-10-16T06:56:55.064Z,1.00
2022-10-16T06:59:23.003Z,1.05
2022-10-16T07:01:51.083Z,0.90
2022-10-16T07:04:20.319Z,1.15
2022-10-16T07:06:48.043Z,1.25
2022-10-16T07:09:15.892Z,0.98
2022-10-16T07:11:43.612Z,1.20
2022-10-16T07:14:18.477Z,1.33
2022-10-16T07:16:46.350Z,1.23
2022-10-16T07:19:15.759Z,1.00
2022-10-16T07:21:45.472Z,1.00
2022-10-16T07:24:15.184Z,0.93
2022-10-16T07:26:44.709Z,1.10
2022-10-16T07:29:16.298Z,1.38
2022-10-16T07:31:44.976Z,1.30
2022-10-16T07:34:14.835Z,1.10
2022-10-16T07:36:44.028Z,1.00
2022-10-16T07:39:11.806Z,1.13
2022-10-16T07:41:39.539Z,0.88
2022-10-16T07:44:07.546Z,1.10
2022-10-16T07:46:36.805Z,1.05
2022-10-16T07:49:04.990Z,1.15
2022-10-16T07:51:32.903Z,1.42
2022-10-16T07:54:02.220Z,1.40
2022-10-16T07:56:30.033Z,1.13
2022-10-16T07:58:57.834Z,1.27
2022-10-16T08:01:26.636Z,1.30
2022-10-16T08:03:55.134Z,1.13
2022-10-16T08:06:27.663Z,0.98
2022-10-16T08:08:56.938Z,1.33
2022-10-16T08:11:26.219Z,1.05
2022-10-16T08:13:54.002Z,1.00
2022-10-16T08:16:22.057Z,0.80
2022-10-16T08:18:52.169Z,1.20
2022-10-16T08:21:22.360Z,1.42
2022-10-16T08:23:54.731Z,1.50
2022-10-16T08:26:28.452Z,1.67
2022-10-16T08:28:57.121Z,1.77
2022-10-16T08:31:27.092Z,1.20
2022-10-16T08:33:55.331Z,1.33
2022-10-16T08:36:23.110Z,1.27
2022-10-16T08:38:54.390Z,1.20
2022-10-16T08:42:13.125Z,1.40
2022-10-16T08:45:17.566Z,1.30
2022-10-16T08:47:55.374Z,1.10
2022-10-16T08:50:28.873Z,1.20
2022-10-16T08:52:58.959Z,1.30
2022-10-16T08:55:43.787Z,1.70
2022-10-16T08:58:16.988Z,1.30
2022-10-16T09:00:49.335Z,0.93
2022-10-16T09:03:35.487Z,1.20
2022-10-16T09:06:27.912Z,1.38
2022-10-16T09:09:20.211Z,1.00
2022-10-16T09:11:58.931Z,1.15
2022-10-16T09:14:54.913Z,1.17
2022-10-16T09:17:39.911Z,1.75
2022-10-16T09:20:30.791Z,0.93
2022-10-16T09:23:17.059Z,1.80
2022-10-16T09:25:49.726Z,1.00
2022-10-16T09:28:18.999Z,1.40
2022-10-16T09:30:50.813Z,1.02
2022-10-16T09:33:22.775Z,1.00
2022-10-16T09:35:54.547Z,1.40
2022-10-16T09:38:30.604Z,0.95
2022-10-16T09:41:03.683Z,1.00
2022-10-16T09:43:41.435Z,1.15
2022-10-16T09:46:26.200Z,1.38
2022-10-16T09:48:57.967Z,1.02
2022-10-16T09:51:30.456Z,1.92
2022-10-16T09:54:02.432Z,1.13
2022-10-16T09:56:33.381Z,1.35
2022-10-16T10:01:39.511Z,1.05
2022-10-16T10:04:08.577Z,0.82
2022-10-16T10:06:39.815Z,1.10
2022-10-16T10:09:19.478Z,1.00
2022-10-16T10:11:52.357Z,1.17
2022-10-16T10:14:25.023Z,1.17
2022-10-16T10:17:09.998Z,1.20
2022-10-16T10:19:42.174Z,1.20
2022-10-16T10:22:23.780Z,1.25
2022-10-16T10:25:17.536Z,1.13
2022-10-16T10:28:02.460Z,1.20
2022-10-16T10:30:42.142Z,1.00
2022-10-16T10:33:24.447Z,1.10
2022-10-16T10:36:05.042Z,1.23
2022-10-16T10:38:47.654Z,1.10
2022-10-16T10:41:38.821Z,1.00
2022-10-16T10:44:21.891Z,0.80
2022-10-16T10:46:58.159Z,1.00
2022-10-16T10:50:03.947Z,0.77
2022-10-16T10:52:45.305Z,0.93
2022-10-16T10:55:24.966Z,1.30
2022-10-16T10:58:35.084Z,0.95
2022-10-16T11:01:10.416Z,1.05
2022-10-16T11:04:00.484Z,0.88
2022-10-16T11:06:37.652Z,0.98
2022-10-16T11:09:17.462Z,0.88
2022-10-16T11:11:50.975Z,0.95
2022-10-16T11:14:24.115Z,1.00
2022-10-16T11:16:59.855Z,0.80
2022-10-16T11:19:41.851Z,1.00
2022-10-16T11:22:19.625Z,0.90
2022-10-16T11:24:55.181Z,1.17
2022-10-16T11:27:39.379Z,1.02
2022-10-16T11:30:20.338Z,0.82
2022-10-16T11:35:39.174Z,0.88
2022-10-16T11:38:18.922Z,1.10
2022-10-16T11:40:54.575Z,0.90
2022-10-16T11:43:30.671Z,1.00
2022-10-16T11:46:07.727Z,1.23
2022-10-16T11:48:45.024Z,0.82
2022-10-16T11:51:21.709Z,1.02
2022-10-16T11:53:59.628Z,1.10
2022-10-16T11:56:28.090Z,0.90
2022-10-16T11:59:03.837Z,0.98
2022-10-16T12:01:40.447Z,0.95
2022-10-16T12:04:23.307Z,1.08
2022-10-16T12:06:57.528Z,0.95
2022-10-16T12:09:29.619Z,1.08
2022-10-16T12:11:58.078Z,0.93
2022-10-16T12:14:57.666Z,0.90
2022-10-16T12:17:37.301Z,0.90
2022-10-16T12:20:26.513Z,1.13
2022-10-16T12:22:57.898Z,0.88
2022-10-16T12:25:31.853Z,1.63
2022-10-16T12:28:03.566Z,0.90
2022-10-16T12:30:36.032Z,0.85
2022-10-16T12:33:07.839Z,1.00
2022-10-16T12:35:45.289Z,1.00
2022-10-16T12:38:28.444Z,1.45
2022-10-16T12:41:04.806Z,1.00
2022-10-16T12:43:43.903Z,0.95
2022-10-16T12:46:35.705Z,1.02
2022-10-16T12:49:31.784Z,0.90
2022-10-16T12:52:00.054Z,0.73
2022-10-16T12:54:32.185Z,0.85
2022-10-16T12:57:20.646Z,0.90
2022-10-16T13:00:01.154Z,0.70
2022-10-16T13:03:12.625Z,1.00
2022-10-16T13:06:01.295Z,0.65
2022-10-16T13:08:54.442Z,1.00
2022-10-16T13:11:32.003Z,0.82
2022-10-16T13:14:25.521Z,0.80
2022-10-16T13:17:08.195Z,0.80
2022-10-16T13:19:47.064Z,1.05
2022-10-16T13:22:25.863Z,0.65
2022-10-16T13:25:15.245Z,0.60
2022-10-16T13:27:52.705Z,0.80
2022-10-16T13:30:28.335Z,0.63
2022-10-16T13:33:05.889Z,1.00
2022-10-16T13:35:36.889Z,0.88
2022-10-16T13:38:16.088Z,0.80
2022-10-16T13:40:53.553Z,0.93
2022-10-16T13:43:25.269Z,1.00
2022-10-16T13:46:03.854Z,0.80
2022-10-16T13:48:39.680Z,1.00
2022-10-16T13:51:15.183Z,0.95
2022-10-16T13:53:44.097Z,1.00
2022-10-16T13:56:16.463Z,1.08
2022-10-16T13:58:45.699Z,0.63
2022-10-16T14:01:22.259Z,1.08
2022-10-16T14:03:51.668Z,0.90
2022-10-16T14:06:23.681Z,1.05
2022-10-16T14:09:00.267Z,0.90
2022-10-16T14:11:28.630Z,1.40
2022-10-16T14:13:57.165Z,0.80
2022-10-16T14:16:30.926Z,0.80
2022-10-16T14:19:02.808Z,1.10
2022-10-16T14:21:33.020Z,0.77
2022-10-16T14:24:00.878Z,0.95
2022-10-16T14:26:29.851Z,0.88
2022-10-16T14:29:13.994Z,0.90
2022-10-16T14:31:44.316Z,0.98
2022-10-16T14:34:31.551Z,0.95
2022-10-16T14:37:05.631Z,0.80
2022-10-16T14:39:33.712Z,1.00
2022-10-16T14:42:01.801Z,0.80
2022-10-16T14:44:34.980Z,0.90
2022-10-16T14:47:15.563Z,0.80
2022-10-16T14:49:44.470Z,0.85
2022-10-16T14:52:14.234Z,0.85
2022-10-16T14:54:42.847Z,1.10
2022-10-16T14:57:20.708Z,0.70
2022-10-16T14:59:52.103Z,0.60
2022-10-16T15:02:33.170Z,0.60
2022-10-16T15:05:14.283Z,0.63
2022-10-16T15:07:42.774Z,0.80
2022-10-16T15:10:11.307Z,0.70
2022-10-16T15:12:39.111Z,0.65
2022-10-16T15:15:35.159Z,1.05
2022-10-16T15:18:05.054Z,1.00
2022-10-16T15:20:35.585Z,0.73
2022-10-16T15:23:05.399Z,0.75
2022-10-16T15:25:41.610Z,0.73
2022-10-16T15:28:11.237Z,0.85
2022-10-16T15:30:40.251Z,0.82
2022-10-16T15:33:16.612Z,0.90
2022-10-16T15:35:44.831Z,0.70
2022-10-16T15:38:15.004Z,0.85
2022-10-16T15:40:43.219Z,0.90
2022-10-16T15:43:12.530Z,0.68
2022-10-16T15:45:40.308Z,1.30
2022-10-16T15:48:13.388Z,1.00
2022-10-16T15:53:15.966Z,0.75
2022-10-16T15:55:43.746Z,0.80
2022-10-16T15:58:11.507Z,0.88
2022-10-16T16:00:39.446Z,0.80
2022-10-16T16:03:07.236Z,0.90
2022-10-16T16:05:44.108Z,0.70
2022-10-16T16:08:14.289Z,1.10
2022-10-16T16:10:42.034Z,0.85
2022-10-16T16:13:09.864Z,0.70
2022-10-16T16:15:41.019Z,0.88
2022-10-16T16:18:10.527Z,0.70
2022-10-16T16:20:39.921Z,0.60
2022-10-16T16:23:07.661Z,0.68
2022-10-16T16:25:35.442Z,0.75
2022-10-16T16:28:03.185Z,0.80
2022-10-16T16:30:30.998Z,0.80
2022-10-16T16:32:58.720Z,0.82
2022-10-16T16:35:26.615Z,0.82
2022-10-16T16:37:55.686Z,0.70
2022-10-16T16:40:23.430Z,0.60
2022-10-16T16:42:51.476Z,0.90
2022-10-16T16:45:19.275Z,0.70
2022-10-16T16:47:47.019Z,0.98
2022-10-16T16:50:14.895Z,0.77
2022-10-16T16:52:42.885Z,1.02
2022-10-16T16:55:12.246Z,0.80
2022-10-16T16:57:40.171Z,0.70
2022-10-16T17:00:09.938Z,1.00
2022-10-16T17:02:37.740Z,1.20
2022-10-16T17:05:05.928Z,1.00
2022-10-16T17:07:35.491Z,1.00
2022-10-16T17:10:03.938Z,0.80
2022-10-16T17:12:33.114Z,1.15
2022-10-16T17:15:00.982Z,0.80
2022-10-16T17:17:29.598Z,1.10
2022-10-16T17:19:57.655Z,1.00
2022-10-16T17:22:25.812Z,1.00
2022-10-16T17:24:54.815Z,1.30
2022-10-16T17:27:23.535Z,1.17
2022-10-16T17:29:54.795Z,0.75
2022-10-16T17:32:23.723Z,0.80
2022-10-16T17:34:51.873Z,0.80
2022-10-16T17:37:19.727Z,0.95
2022-10-16T17:39:47.817Z,0.98
2022-10-16T17:42:15.609Z,0.80
2022-10-16T17:44:43.363Z,0.98
2022-10-16T17:47:12.527Z,0.80
2022-10-16T17:49:40.291Z,0.90
2022-10-16T17:52:08.188Z,1.08
2022-10-16T17:54:36.025Z,1.10
2022-10-16T17:57:03.782Z,1.00
2022-10-16T17:59:31.586Z,0.95
2022-10-16T18:01:59.574Z,0.70
2022-10-16T18:04:28.854Z,0.80
2022-10-16T18:06:56.993Z,0.80
2022-10-16T18:09:24.986Z,0.80
2022-10-16T18:11:59.768Z,1.00
2022-10-16T18:14:29.932Z,0.90
2022-10-16T18:16:58.558Z,0.70
2022-10-16T18:19:28.774Z,0.95
2022-10-16T18:21:56.596Z,1.13
2022-10-16T18:24:25.891Z,0.80
2022-10-16T18:26:57.290Z,0.70
2022-10-16T18:29:26.902Z,0.85
2022-10-16T18:31:54.936Z,0.68
2022-10-16T18:34:23.049Z,0.80
2022-10-16T18:36:54.305Z,1.10
2022-10-16T18:39:23.755Z,0.88
2022-10-16T18:41:55.075Z,1.65
2022-10-16T18:44:22.833Z,1.20
2022-10-16T18:46:52.435Z,0.95
2022-10-16T18:49:20.222Z,0.75
2022-10-16T18:51:48.723Z,1.10
2022-10-16T18:54:17.863Z,1.17
2022-10-16T18:56:45.678Z,1.20
2022-10-16T18:59:13.465Z,1.52
2022-10-16T19:01:43.747Z,3.40
2022-10-16T19:04:14.277Z,3.78
2022-10-16T19:06:45.097Z,2.13
2022-10-16T19:09:15.028Z,2.45
2022-10-16T19:11:44.779Z,1.60
2022-10-16T19:14:13.677Z,3.35
2022-10-16T19:16:43.284Z,2.83
2022-10-16T19:19:15.144Z,3.35
2022-10-16T19:21:43.649Z,2.70
2022-10-16T19:24:15.915Z,2.85
2022-10-16T19:26:45.342Z,2.55
2022-10-16T19:29:13.629Z,2.83
2022-10-16T19:31:42.337Z,2.50
2022-10-16T19:34:12.523Z,3.22
2022-10-16T19:36:41.929Z,2.63
2022-10-16T19:39:14.744Z,3.17
2022-10-16T19:41:43.065Z,3.08
2022-10-16T19:44:16.271Z,3.28
2022-10-16T19:46:46.373Z,3.30
2022-10-16T19:49:18.098Z,3.60
2022-10-16T19:51:49.497Z,3.10
2022-10-16T19:54:17.678Z,4.18
2022-10-16T19:56:45.713Z,3.25
2022-10-16T19:59:17.261Z,3.85
2022-10-16T20:01:45.142Z,3.42
2022-10-16T20:04:14.422Z,4.40
2022-10-16T20:06:42.535Z,3.10
2022-10-16T20:09:10.391Z,3.63
2022-10-16T20:11:38.610Z,4.15
2022-10-16T20:14:08.668Z,3.65
2022-10-16T20:16:37.958Z,4.23
2022-10-16T20:19:05.826Z,4.20
2022-10-16T20:21:35.905Z,3.80
2022-10-16T20:24:06.618Z,3.75
2022-10-16T20:29:03.253Z,3.10
2022-10-16T20:31:33.903Z,3.33
2022-10-16T20:34:12.153Z,3.80
2022-10-16T20:36:43.292Z,3.28
2022-10-16T20:39:14.075Z,3.08
2022-10-16T20:41:42.042Z,4.03
2022-10-16T20:44:09.917Z,3.72
2022-10-16T20:46:37.754Z,3.60
2022-10-16T20:49:11.637Z,3.63
2022-10-16T20:51:45.669Z,3.42
2022-10-16T20:54:13.693Z,3.63
2022-10-16T20:56:42.548Z,4.15
2022-10-16T20:59:12.311Z,4.07
2022-10-16T21:01:41.801Z,3.88
2022-10-16T21:04:11.299Z,3.22
2022-10-16T21:06:40.748Z,3.42
2022-10-16T21:09:09.355Z,3.40
2022-10-16T21:11:38.440Z,3.95
2022-10-16T21:14:10.346Z,3.33
2022-10-16T21:16:38.832Z,3.80
2022-10-16T21:19:07.234Z,3.72
2022-10-16T21:21:39.233Z,3.20
2022-10-16T21:24:11.956Z,2.95
2022-10-16T21:26:43.071Z,3.47
2022-10-16T21:29:11.256Z,2.75
2022-10-16T21:31:39.196Z,3.63
2022-10-16T21:34:07.309Z,3.72
2022-10-16T21:36:39.208Z,3.50
2022-10-16T21:39:10.935Z,3.63
2022-10-16T21:41:39.819Z,4.03
2022-10-16T21:44:10.113Z,3.40
2022-10-16T21:46:41.648Z,3.45
2022-10-16T21:49:14.046Z,3.42
2022-10-16T21:51:45.493Z,4.68
2022-10-16T21:54:16.091Z,3.47
2022-10-16T21:56:43.901Z,3.40
2022-10-16T21:59:13.890Z,3.40
2022-10-16T22:01:42.385Z,3.07
2022-10-16T22:04:11.563Z,3.38
2022-10-16T22:06:39.896Z,3.58
2022-10-16T22:09:11.808Z,3.50
2022-10-16T22:11:39.805Z,3.70
2022-10-16T22:14:11.940Z,3.60
2022-10-16T22:16:41.625Z,3.10
2022-10-16T22:19:09.876Z,3.75
2022-10-16T22:21:40.260Z,3.10
2022-10-16T22:24:10.537Z,3.28
2022-10-16T22:26:39.741Z,3.22
2022-10-16T22:29:08.566Z,3.42
2022-10-16T22:31:36.552Z,3.35
2022-10-16T22:34:06.360Z,3.38
2022-10-16T22:36:35.443Z,3.45
2022-10-16T22:39:03.821Z,3.45
2022-10-16T22:41:33.466Z,3.50
2022-10-16T22:44:01.175Z,3.40
2022-10-16T22:46:31.345Z,3.28
2022-10-16T22:48:59.276Z,3.38
2022-10-16T22:51:28.425Z,3.17
2022-10-16T22:53:59.222Z,3.05
2022-10-16T22:56:27.549Z,3.70
2022-10-16T22:58:56.685Z,3.25
2022-10-16T23:01:27.939Z,2.60
2022-10-16T23:03:56.117Z,3.40
2022-10-16T23:06:23.960Z,3.78
2022-10-16T23:08:53.194Z,3.15
2022-10-16T23:11:21.300Z,2.67
2022-10-16T23:13:49.610Z,2.63
2022-10-16T23:16:21.115Z,2.75
2022-10-16T23:18:50.290Z,3.13
2022-10-16T23:21:21.666Z,3.28
2022-10-16T23:23:50.302Z,3.38
2022-10-16T23:26:21.586Z,3.40
2022-10-16T23:28:49.848Z,3.10
2022-10-16T23:31:20.223Z,3.38
2022-10-16T23:33:48.005Z,3.13
2022-10-16T23:36:18.909Z,3.10
2022-10-16T23:41:15.354Z,3.22
2022-10-16T23:43:43.357Z,2.70
2022-10-16T23:46:13.853Z,3.25
2022-10-16T23:48:43.195Z,2.65
2022-10-16T23:51:11.691Z,2.85
2022-10-16T23:53:39.720Z,2.58
2022-10-16T23:56:08.369Z,2.70
2022-10-16T23:58:36.351Z,2.80
